sensor_id;sensor_type;location;lat;lon;timestamp;temperature;humidity
41318;DHT22;27067;51.554;7.026;2023-02-15T00:01:21;17.80;77.40
41318;DHT22;27067;51.554;7.026;2023-02-15T00:03:50;17.70;77.30
41318;DHT22;27067;51.554;7.026;2023-02-15T00:06:17;17.80;77.40
41318;DHT22;27067;51.554;7.026;2023-02-15T00:08:43;17.70;77.30
41318;DHT22;27067;51.554;7.026;2023-02-15T00:11:11;17.70;77.30
41318;DHT22;27067;51.554;7.026;2023-02-15T00:13:37;17.70;77.30
41318;DHT22;27067;51.554;7.026;2023-02-15T00:16:11;17.70;77.50
41318;DHT22;27067;51.554;7.026;2023-02-15T00:18:40;17.70;77.40
41318;DHT22;27067;51.554;7.026;2023-02-15T00:21:08;17.70;77.50
41318;DHT22;27067;51.554;7.026;2023-02-15T00:23:35;17.70;77.60
41318;DHT22;27067;51.554;7.026;2023-02-15T00:26:10;17.70;77.50
41318;DHT22;27067;51.554;7.026;2023-02-15T00:28:36;17.70;77.60
41318;DHT22;27067;51.554;7.026;2023-02-15T00:31:12;17.60;77.70
41318;DHT22;27067;51.554;7.026;2023-02-15T00:33:38;17.60;77.60
41318;DHT22;27067;51.554;7.026;2023-02-15T00:36:07;17.60;77.50
41318;DHT22;27067;51.554;7.026;2023-02-15T00:38:33;17.60;77.60
41318;DHT22;27067;51.554;7.026;2023-02-15T00:41:00;17.60;77.60
41318;DHT22;27067;51.554;7.026;2023-02-15T00:43:27;17.60;77.60
41318;DHT22;27067;51.554;7.026;2023-02-15T00:45:54;17.60;77.60
41318;DHT22;27067;51.554;7.026;2023-02-15T00:48:20;17.60;77.60
41318;DHT22;27067;51.554;7.026;2023-02-15T00:50:51;17.60;77.50
41318;DHT22;27067;51.554;7.026;2023-02-15T00:53:17;17.60;77.60
41318;DHT22;27067;51.554;7.026;2023-02-15T00:55:44;17.60;77.50
41318;DHT22;27067;51.554;7.026;2023-02-15T00:58:11;17.60;77.50
41318;DHT22;27067;51.554;7.026;2023-02-15T01:00:37;17.50;77.50
41318;DHT22;27067;51.554;7.026;2023-02-15T01:03:04;17.50;77.40
41318;DHT22;27067;51.554;7.026;2023-02-15T01:05:31;17.50;77.40
41318;DHT22;27067;51.554;7.026;2023-02-15T01:07:58;17.50;77.40
41318;DHT22;27067;51.554;7.026;2023-02-15T01:10:24;17.50;77.40
41318;DHT22;27067;51.554;7.026;2023-02-15T01:12:51;17.50;77.40
41318;DHT22;27067;51.554;7.026;2023-02-15T01:15:17;17.50;77.30
41318;DHT22;27067;51.554;7.026;2023-02-15T01:17:43;17.50;77.30
41318;DHT22;27067;51.554;7.026;2023-02-15T01:20:11;17.50;77.20
41318;DHT22;27067;51.554;7.026;2023-02-15T01:22:37;17.50;77.20
41318;DHT22;27067;51.554;7.026;2023-02-15T01:25:03;17.50;77.40
41318;DHT22;27067;51.554;7.026;2023-02-15T01:27:28;17.50;77.40
41318;DHT22;27067;51.554;7.026;2023-02-15T01:29:56;17.50;77.30
41318;DHT22;27067;51.554;7.026;2023-02-15T01:32:22;17.50;77.20
41318;DHT22;27067;51.554;7.026;2023-02-15T01:34:48;17.40;77.10
41318;DHT22;27067;51.554;7.026;2023-02-15T01:37:13;17.40;77.10
41318;DHT22;27067;51.554;7.026;2023-02-15T01:39:39;17.40;77.10
41318;DHT22;27067;51.554;7.026;2023-02-15T01:42:04;17.40;77.10
41318;DHT22;27067;51.554;7.026;2023-02-15T01:44:53;17.40;77.20
41318;DHT22;27067;51.554;7.026;2023-02-15T01:52:34;17.40;77.30
41318;DHT22;27067;51.554;7.026;2023-02-15T01:55:03;17.40;77.30
41318;DHT22;27067;51.554;7.026;2023-02-15T01:57:29;17.40;77.10
41318;DHT22;27067;51.554;7.026;2023-02-15T01:59:58;17.40;77.10
41318;DHT22;27067;51.554;7.026;2023-02-15T02:02:25;17.40;77.10
41318;DHT22;27067;51.554;7.026;2023-02-15T02:04:56;17.40;77.00
41318;DHT22;27067;51.554;7.026;2023-02-15T02:07:27;17.30;76.90
41318;DHT22;27067;51.554;7.026;2023-02-15T02:09:53;17.30;77.00
41318;DHT22;27067;51.554;7.026;2023-02-15T02:12:20;17.40;77.00
41318;DHT22;27067;51.554;7.026;2023-02-15T02:14:47;17.30;76.90
41318;DHT22;27067;51.554;7.026;2023-02-15T02:20:11;17.30;76.80
41318;DHT22;27067;51.554;7.026;2023-02-15T02:22:48;17.30;76.70
41318;DHT22;27067;51.554;7.026;2023-02-15T02:41:45;17.30;76.60
41318;DHT22;27067;51.554;7.026;2023-02-15T02:44:23;17.30;76.60
41318;DHT22;27067;51.554;7.026;2023-02-15T02:47:01;17.30;76.60
41318;DHT22;27067;51.554;7.026;2023-02-15T02:49:36;17.20;76.50
41318;DHT22;27067;51.554;7.026;2023-02-15T02:52:04;17.20;76.60
41318;DHT22;27067;51.554;7.026;2023-02-15T02:54:32;17.30;76.80
41318;DHT22;27067;51.554;7.026;2023-02-15T02:57:03;17.20;76.70
41318;DHT22;27067;51.554;7.026;2023-02-15T02:59:39;17.20;76.60
41318;DHT22;27067;51.554;7.026;2023-02-15T03:02:15;17.30;76.60
41318;DHT22;27067;51.554;7.026;2023-02-15T03:04:46;17.20;76.40
41318;DHT22;27067;51.554;7.026;2023-02-15T03:07:17;17.20;76.10
41318;DHT22;27067;51.554;7.026;2023-02-15T03:09:49;17.20;76.50
41318;DHT22;27067;51.554;7.026;2023-02-15T03:12:21;17.20;76.70
41318;DHT22;27067;51.554;7.026;2023-02-15T03:14:51;17.20;76.40
41318;DHT22;27067;51.554;7.026;2023-02-15T03:17:20;17.20;76.30
41318;DHT22;27067;51.554;7.026;2023-02-15T03:19:50;17.20;76.30
41318;DHT22;27067;51.554;7.026;2023-02-15T03:22:24;17.10;76.10
41318;DHT22;27067;51.554;7.026;2023-02-15T03:24:59;17.10;76.00
41318;DHT22;27067;51.554;7.026;2023-02-15T03:27:27;17.20;76.10
41318;DHT22;27067;51.554;7.026;2023-02-15T03:29:58;17.10;76.00
41318;DHT22;27067;51.554;7.026;2023-02-15T03:32:27;17.20;76.00
41318;DHT22;27067;51.554;7.026;2023-02-15T03:34:54;17.20;76.00
41318;DHT22;27067;51.554;7.026;2023-02-15T03:37:28;17.10;76.00
41318;DHT22;27067;51.554;7.026;2023-02-15T03:40:08;17.10;75.90
41318;DHT22;27067;51.554;7.026;2023-02-15T03:43:18;17.10;75.80
41318;DHT22;27067;51.554;7.026;2023-02-15T03:45:49;17.10;75.70
41318;DHT22;27067;51.554;7.026;2023-02-15T03:48:29;17.10;75.60
41318;DHT22;27067;51.554;7.026;2023-02-15T03:51:00;17.10;75.60
41318;DHT22;27067;51.554;7.026;2023-02-15T03:53:47;17.10;75.70
41318;DHT22;27067;51.554;7.026;2023-02-15T03:56:13;17.10;75.70
41318;DHT22;27067;51.554;7.026;2023-02-15T03:58:39;17.10;75.70
41318;DHT22;27067;51.554;7.026;2023-02-15T04:01:40;17.10;75.70
41318;DHT22;27067;51.554;7.026;2023-02-15T04:04:28;17.10;75.70
41318;DHT22;27067;51.554;7.026;2023-02-15T04:06:56;17.00;75.60
41318;DHT22;27067;51.554;7.026;2023-02-15T04:09:22;17.10;75.70
41318;DHT22;27067;51.554;7.026;2023-02-15T04:12:06;17.10;75.60
41318;DHT22;27067;51.554;7.026;2023-02-15T04:14:32;17.10;75.50
41318;DHT22;27067;51.554;7.026;2023-02-15T04:17:16;17.00;75.50
41318;DHT22;27067;51.554;7.026;2023-02-15T04:19:42;17.00;75.40
41318;DHT22;27067;51.554;7.026;2023-02-15T04:22:26;17.00;75.30
41318;DHT22;27067;51.554;7.026;2023-02-15T04:25:10;17.00;75.40
41318;DHT22;27067;51.554;7.026;2023-02-15T04:27:42;17.00;75.40
41318;DHT22;27067;51.554;7.026;2023-02-15T04:30:09;17.00;75.20
41318;DHT22;27067;51.554;7.026;2023-02-15T04:32:35;17.00;75.20
41318;DHT22;27067;51.554;7.026;2023-02-15T04:35:02;17.00;75.30
41318;DHT22;27067;51.554;7.026;2023-02-15T04:37:28;17.00;75.20
41318;DHT22;27067;51.554;7.026;2023-02-15T04:39:54;17.00;75.20
41318;DHT22;27067;51.554;7.026;2023-02-15T04:42:19;17.00;75.00
41318;DHT22;27067;51.554;7.026;2023-02-15T04:44:45;17.00;75.00
41318;DHT22;27067;51.554;7.026;2023-02-15T04:47:11;17.00;75.20
41318;DHT22;27067;51.554;7.026;2023-02-15T04:49:36;17.00;75.40
41318;DHT22;27067;51.554;7.026;2023-02-15T04:52:02;17.00;75.60
41318;DHT22;27067;51.554;7.026;2023-02-15T04:54:28;17.00;75.70
41318;DHT22;27067;51.554;7.026;2023-02-15T04:56:53;17.00;75.90
41318;DHT22;27067;51.554;7.026;2023-02-15T04:59:19;17.00;76.00
41318;DHT22;27067;51.554;7.026;2023-02-15T05:01:45;17.00;76.10
41318;DHT22;27067;51.554;7.026;2023-02-15T05:04:10;17.00;76.80
41318;DHT22;27067;51.554;7.026;2023-02-15T05:06:36;17.00;76.30
41318;DHT22;27067;51.554;7.026;2023-02-15T05:09:02;17.00;76.40
41318;DHT22;27067;51.554;7.026;2023-02-15T05:11:28;17.00;76.50
41318;DHT22;27067;51.554;7.026;2023-02-15T05:13:53;17.00;76.70
41318;DHT22;27067;51.554;7.026;2023-02-15T05:16:19;17.10;76.80
41318;DHT22;27067;51.554;7.026;2023-02-15T05:18:45;17.20;76.80
41318;DHT22;27067;51.554;7.026;2023-02-15T05:21:11;17.30;76.60
41318;DHT22;27067;51.554;7.026;2023-02-15T05:23:36;17.30;76.20
41318;DHT22;27067;51.554;7.026;2023-02-15T05:26:02;17.40;75.90
41318;DHT22;27067;51.554;7.026;2023-02-15T05:28:46;17.40;75.40
41318;DHT22;27067;51.554;7.026;2023-02-15T05:31:14;17.50;75.70
41318;DHT22;27067;51.554;7.026;2023-02-15T05:33:42;17.50;74.60
41318;DHT22;27067;51.554;7.026;2023-02-15T05:36:08;17.50;74.80
41318;DHT22;27067;51.554;7.026;2023-02-15T05:38:35;17.60;74.00
41318;DHT22;27067;51.554;7.026;2023-02-15T05:41:07;17.60;73.70
41318;DHT22;27067;51.554;7.026;2023-02-15T05:43:33;17.60;73.60
41318;DHT22;27067;51.554;7.026;2023-02-15T05:45:59;17.60;73.30
41318;DHT22;27067;51.554;7.026;2023-02-15T05:48:26;17.50;73.10
41318;DHT22;27067;51.554;7.026;2023-02-15T05:50:59;17.50;72.90
41318;DHT22;27067;51.554;7.026;2023-02-15T05:53:26;17.50;72.80
41318;DHT22;27067;51.554;7.026;2023-02-15T05:55:52;17.50;72.80
41318;DHT22;27067;51.554;7.026;2023-02-15T05:58:19;17.50;72.80
41318;DHT22;27067;51.554;7.026;2023-02-15T06:00:45;17.40;72.70
41318;DHT22;27067;51.554;7.026;2023-02-15T06:03:11;17.40;72.80
41318;DHT22;27067;51.554;7.026;2023-02-15T06:05:36;17.40;72.80
41318;DHT22;27067;51.554;7.026;2023-02-15T06:08:02;17.40;72.80
41318;DHT22;27067;51.554;7.026;2023-02-15T06:10:28;17.30;72.70
41318;DHT22;27067;51.554;7.026;2023-02-15T06:12:54;17.30;72.80
41318;DHT22;27067;51.554;7.026;2023-02-15T06:15:20;17.30;72.70
41318;DHT22;27067;51.554;7.026;2023-02-15T06:17:46;17.20;72.70
41318;DHT22;27067;51.554;7.026;2023-02-15T06:20:12;17.20;72.70
41318;DHT22;27067;51.554;7.026;2023-02-15T06:22:37;17.20;72.70
41318;DHT22;27067;51.554;7.026;2023-02-15T06:25:03;17.20;72.60
41318;DHT22;27067;51.554;7.026;2023-02-15T06:27:29;17.20;72.60
41318;DHT22;27067;51.554;7.026;2023-02-15T06:29:55;17.20;72.60
41318;DHT22;27067;51.554;7.026;2023-02-15T06:32:21;17.20;72.50
41318;DHT22;27067;51.554;7.026;2023-02-15T06:34:46;17.20;72.50
41318;DHT22;27067;51.554;7.026;2023-02-15T06:37:12;17.20;72.40
41318;DHT22;27067;51.554;7.026;2023-02-15T06:39:37;17.20;72.30
41318;DHT22;27067;51.554;7.026;2023-02-15T06:42:03;17.20;72.40
41318;DHT22;27067;51.554;7.026;2023-02-15T06:44:29;17.10;72.40
41318;DHT22;27067;51.554;7.026;2023-02-15T06:46:54;17.10;72.50
41318;DHT22;27067;51.554;7.026;2023-02-15T06:49:20;17.10;72.50
41318;DHT22;27067;51.554;7.026;2023-02-15T06:51:46;17.10;72.60
41318;DHT22;27067;51.554;7.026;2023-02-15T06:54:12;17.10;72.70
41318;DHT22;27067;51.554;7.026;2023-02-15T06:56:38;17.10;72.70
41318;DHT22;27067;51.554;7.026;2023-02-15T06:59:04;17.10;72.60
41318;DHT22;27067;51.554;7.026;2023-02-15T07:01:29;17.10;72.50
41318;DHT22;27067;51.554;7.026;2023-02-15T07:03:55;17.10;72.30
41318;DHT22;27067;51.554;7.026;2023-02-15T07:06:21;17.20;72.10
41318;DHT22;27067;51.554;7.026;2023-02-15T07:08:46;17.20;71.80
41318;DHT22;27067;51.554;7.026;2023-02-15T07:11:14;17.20;71.60
41318;DHT22;27067;51.554;7.026;2023-02-15T07:13:58;17.20;71.50
41318;DHT22;27067;51.554;7.026;2023-02-15T07:16:24;17.20;71.50
41318;DHT22;27067;51.554;7.026;2023-02-15T07:18:49;17.20;72.90
41318;DHT22;27067;51.554;7.026;2023-02-15T07:21:15;17.20;75.20
41318;DHT22;27067;51.554;7.026;2023-02-15T07:23:41;17.20;76.80
41318;DHT22;27067;51.554;7.026;2023-02-15T07:26:07;17.20;77.70
41318;DHT22;27067;51.554;7.026;2023-02-15T07:28:34;17.20;77.70
41318;DHT22;27067;51.554;7.026;2023-02-15T07:31:04;17.20;77.00
41318;DHT22;27067;51.554;7.026;2023-02-15T07:33:31;17.10;76.40
41318;DHT22;27067;51.554;7.026;2023-02-15T07:36:00;17.10;76.00
41318;DHT22;27067;51.554;7.026;2023-02-15T07:38:32;17.10;77.00
41318;DHT22;27067;51.554;7.026;2023-02-15T07:41:04;17.10;81.20
41318;DHT22;27067;51.554;7.026;2023-02-15T07:43:30;17.10;82.50
41318;DHT22;27067;51.554;7.026;2023-02-15T07:46:06;17.20;82.70
41318;DHT22;27067;51.554;7.026;2023-02-15T07:48:33;17.10;81.70
41318;DHT22;27067;51.554;7.026;2023-02-15T07:51:00;17.10;79.30
41318;DHT22;27067;51.554;7.026;2023-02-15T07:53:26;17.10;76.50
41318;DHT22;27067;51.554;7.026;2023-02-15T07:55:52;17.00;75.00
41318;DHT22;27067;51.554;7.026;2023-02-15T07:58:18;16.90;71.40
41318;DHT22;27067;51.554;7.026;2023-02-15T08:00:44;16.80;70.40
41318;DHT22;27067;51.554;7.026;2023-02-15T08:03:26;16.70;70.30
41318;DHT22;27067;51.554;7.026;2023-02-15T08:05:56;16.70;70.70
41318;DHT22;27067;51.554;7.026;2023-02-15T08:08:23;16.70;70.90
41318;DHT22;27067;51.554;7.026;2023-02-15T08:14:09;16.80;71.00
41318;DHT22;27067;51.554;7.026;2023-02-15T08:16:47;16.80;70.90
41318;DHT22;27067;51.554;7.026;2023-02-15T08:19:19;16.90;70.90
41318;DHT22;27067;51.554;7.026;2023-02-15T08:21:49;16.90;70.90
41318;DHT22;27067;51.554;7.026;2023-02-15T08:24:16;16.90;71.60
41318;DHT22;27067;51.554;7.026;2023-02-15T08:26:42;16.90;71.00
41318;DHT22;27067;51.554;7.026;2023-02-15T08:29:10;16.90;71.10
41318;DHT22;27067;51.554;7.026;2023-02-15T08:31:35;16.90;71.20
41318;DHT22;27067;51.554;7.026;2023-02-15T08:34:02;16.90;71.30
41318;DHT22;27067;51.554;7.026;2023-02-15T08:36:28;16.90;71.40
41318;DHT22;27067;51.554;7.026;2023-02-15T08:38:56;16.90;71.50
41318;DHT22;27067;51.554;7.026;2023-02-15T08:41:23;16.90;71.60
41318;DHT22;27067;51.554;7.026;2023-02-15T08:43:51;16.90;71.60
41318;DHT22;27067;51.554;7.026;2023-02-15T08:46:20;16.90;71.70
41318;DHT22;27067;51.554;7.026;2023-02-15T08:48:46;16.90;71.80
41318;DHT22;27067;51.554;7.026;2023-02-15T08:51:13;16.90;71.90
41318;DHT22;27067;51.554;7.026;2023-02-15T08:53:39;16.90;72.00
41318;DHT22;27067;51.554;7.026;2023-02-15T08:56:05;16.90;72.00
41318;DHT22;27067;51.554;7.026;2023-02-15T08:58:31;16.90;72.00
41318;DHT22;27067;51.554;7.026;2023-02-15T09:00:57;16.90;72.20
41318;DHT22;27067;51.554;7.026;2023-02-15T09:03:23;16.90;72.20
41318;DHT22;27067;51.554;7.026;2023-02-15T09:05:49;16.80;72.20
41318;DHT22;27067;51.554;7.026;2023-02-15T09:08:14;16.80;72.30
41318;DHT22;27067;51.554;7.026;2023-02-15T09:10:40;16.80;72.40
41318;DHT22;27067;51.554;7.026;2023-02-15T09:13:05;16.80;72.40
41318;DHT22;27067;51.554;7.026;2023-02-15T09:15:31;16.80;72.50
41318;DHT22;27067;51.554;7.026;2023-02-15T09:17:57;16.80;72.70
41318;DHT22;27067;51.554;7.026;2023-02-15T09:20:26;16.80;72.70
41318;DHT22;27067;51.554;7.026;2023-02-15T09:22:53;16.70;72.60
41318;DHT22;27067;51.554;7.026;2023-02-15T09:25:19;16.70;72.80
41318;DHT22;27067;51.554;7.026;2023-02-15T09:27:45;16.70;72.80
41318;DHT22;27067;51.554;7.026;2023-02-15T09:30:10;16.70;72.90
41318;DHT22;27067;51.554;7.026;2023-02-15T09:32:36;16.70;72.90
41318;DHT22;27067;51.554;7.026;2023-02-15T09:35:02;16.70;73.10
41318;DHT22;27067;51.554;7.026;2023-02-15T09:37:27;16.70;73.20
41318;DHT22;27067;51.554;7.026;2023-02-15T09:39:53;16.70;73.20
41318;DHT22;27067;51.554;7.026;2023-02-15T09:42:24;16.70;73.20
41318;DHT22;27067;51.554;7.026;2023-02-15T09:45:13;16.70;73.20
41318;DHT22;27067;51.554;7.026;2023-02-15T09:53:15;16.70;73.30
41318;DHT22;27067;51.554;7.026;2023-02-15T10:14:31;16.70;73.70
41318;DHT22;27067;51.554;7.026;2023-02-15T10:19:51;16.70;73.90
41318;DHT22;27067;51.554;7.026;2023-02-15T10:27:48;16.70;74.00
41318;DHT22;27067;51.554;7.026;2023-02-15T10:30:15;16.70;74.10
41318;DHT22;27067;51.554;7.026;2023-02-15T10:35:12;16.70;74.00
41318;DHT22;27067;51.554;7.026;2023-02-15T10:37:46;16.70;74.00
41318;DHT22;27067;51.554;7.026;2023-02-15T10:45:47;16.70;74.10
41318;DHT22;27067;51.554;7.026;2023-02-15T10:50:52;16.70;74.20
41318;DHT22;27067;51.554;7.026;2023-02-15T10:58:59;16.60;74.20
41318;DHT22;27067;51.554;7.026;2023-02-15T11:04:29;16.60;74.20
41318;DHT22;27067;51.554;7.026;2023-02-15T11:06:57;16.60;74.20
41318;DHT22;27067;51.554;7.026;2023-02-15T11:09:24;16.60;74.30
41318;DHT22;27067;51.554;7.026;2023-02-15T11:11:51;16.60;74.40
41318;DHT22;27067;51.554;7.026;2023-02-15T11:14:20;16.60;74.40
41318;DHT22;27067;51.554;7.026;2023-02-15T11:16:50;16.60;74.40
41318;DHT22;27067;51.554;7.026;2023-02-15T11:19:26;16.60;74.40
41318;DHT22;27067;51.554;7.026;2023-02-15T11:21:54;16.60;74.50
41318;DHT22;27067;51.554;7.026;2023-02-15T11:24:21;16.60;74.40
41318;DHT22;27067;51.554;7.026;2023-02-15T11:26:51;16.60;74.50
41318;DHT22;27067;51.554;7.026;2023-02-15T11:29:33;16.60;74.40
41318;DHT22;27067;51.554;7.026;2023-02-15T11:32:03;16.60;74.40
41318;DHT22;27067;51.554;7.026;2023-02-15T11:34:38;16.60;74.40
41318;DHT22;27067;51.554;7.026;2023-02-15T11:37:10;16.60;74.50
41318;DHT22;27067;51.554;7.026;2023-02-15T11:39:37;16.60;74.50
41318;DHT22;27067;51.554;7.026;2023-02-15T11:42:09;16.60;74.60
41318;DHT22;27067;51.554;7.026;2023-02-15T11:44:54;16.60;74.60
41318;DHT22;27067;51.554;7.026;2023-02-15T11:47:21;16.60;74.70
41318;DHT22;27067;51.554;7.026;2023-02-15T11:49:46;16.60;74.70
41318;DHT22;27067;51.554;7.026;2023-02-15T11:52:12;16.60;75.30
41318;DHT22;27067;51.554;7.026;2023-02-15T11:54:45;16.60;74.80
41318;DHT22;27067;51.554;7.026;2023-02-15T11:57:33;16.70;74.80
41318;DHT22;27067;51.554;7.026;2023-02-15T12:00:22;16.60;74.80
41318;DHT22;27067;51.554;7.026;2023-02-15T12:02:52;16.60;74.90
41318;DHT22;27067;51.554;7.026;2023-02-15T12:05:22;16.70;75.00
41318;DHT22;27067;51.554;7.026;2023-02-15T12:07:54;16.70;75.00
41318;DHT22;27067;51.554;7.026;2023-02-15T12:10:26;16.70;74.90
41318;DHT22;27067;51.554;7.026;2023-02-15T12:13:14;16.70;74.90
41318;DHT22;27067;51.554;7.026;2023-02-15T12:15:46;16.70;74.80
41318;DHT22;27067;51.554;7.026;2023-02-15T12:21:00;16.70;74.80
41318;DHT22;27067;51.554;7.026;2023-02-15T12:23:29;16.70;74.80
41318;DHT22;27067;51.554;7.026;2023-02-15T12:25:56;16.70;74.90
41318;DHT22;27067;51.554;7.026;2023-02-15T12:28:49;16.70;74.90
41318;DHT22;27067;51.554;7.026;2023-02-15T12:31:26;16.80;75.10
41318;DHT22;27067;51.554;7.026;2023-02-15T12:33:53;16.70;75.10
41318;DHT22;27067;51.554;7.026;2023-02-15T12:36:32;16.80;75.30
41318;DHT22;27067;51.554;7.026;2023-02-15T12:42:14;16.80;75.30
41318;DHT22;27067;51.554;7.026;2023-02-15T12:44:33;16.80;75.30
41318;DHT22;27067;51.554;7.026;2023-02-15T12:47:05;16.80;76.00
41318;DHT22;27067;51.554;7.026;2023-02-15T12:49:38;16.80;75.40
41318;DHT22;27067;51.554;7.026;2023-02-15T12:54:49;16.80;75.40
41318;DHT22;27067;51.554;7.026;2023-02-15T12:57:28;16.80;75.40
41318;DHT22;27067;51.554;7.026;2023-02-15T13:00:25;16.80;75.40
41318;DHT22;27067;51.554;7.026;2023-02-15T13:02:55;16.80;75.30
41318;DHT22;27067;51.554;7.026;2023-02-15T13:05:33;16.80;75.30
41318;DHT22;27067;51.554;7.026;2023-02-15T13:08:19;16.80;75.40
41318;DHT22;27067;51.554;7.026;2023-02-15T13:13:34;16.80;75.30
41318;DHT22;27067;51.554;7.026;2023-02-15T13:16:12;16.80;75.30
41318;DHT22;27067;51.554;7.026;2023-02-15T13:18:50;16.80;75.30
41318;DHT22;27067;51.554;7.026;2023-02-15T13:21:20;16.80;75.20
41318;DHT22;27067;51.554;7.026;2023-02-15T13:23:48;16.80;75.00
41318;DHT22;27067;51.554;7.026;2023-02-15T13:26:22;16.80;75.00
41318;DHT22;27067;51.554;7.026;2023-02-15T13:28:57;16.80;74.90
41318;DHT22;27067;51.554;7.026;2023-02-15T13:31:26;16.80;74.90
41318;DHT22;27067;51.554;7.026;2023-02-15T13:37:12;16.80;74.90
41318;DHT22;27067;51.554;7.026;2023-02-15T13:42:44;16.80;75.10
41318;DHT22;27067;51.554;7.026;2023-02-15T13:45:30;16.80;75.10
41318;DHT22;27067;51.554;7.026;2023-02-15T13:51:22;16.80;75.10
41318;DHT22;27067;51.554;7.026;2023-02-15T13:56:40;16.80;75.20
41318;DHT22;27067;51.554;7.026;2023-02-15T14:10:14;16.90;75.30
41318;DHT22;27067;51.554;7.026;2023-02-15T14:12:51;16.90;75.40
41318;DHT22;27067;51.554;7.026;2023-02-15T14:21:10;16.90;75.50
41318;DHT22;27067;51.554;7.026;2023-02-15T14:32:12;16.90;75.70
41318;DHT22;27067;51.554;7.026;2023-02-15T14:34:59;16.80;75.60
41318;DHT22;27067;51.554;7.026;2023-02-15T14:43:11;16.80;75.80
41318;DHT22;27067;51.554;7.026;2023-02-15T14:48:53;16.80;75.90
41318;DHT22;27067;51.554;7.026;2023-02-15T14:54:06;16.80;76.00
41318;DHT22;27067;51.554;7.026;2023-02-15T14:56:32;16.90;76.10
41318;DHT22;27067;51.554;7.026;2023-02-15T14:59:16;16.90;76.10
41318;DHT22;27067;51.554;7.026;2023-02-15T15:01:58;16.80;76.00
41318;DHT22;27067;51.554;7.026;2023-02-15T15:07:09;16.80;76.10
41318;DHT22;27067;51.554;7.026;2023-02-15T15:09:40;16.80;76.10
41318;DHT22;27067;51.554;7.026;2023-02-15T15:12:15;16.80;76.10
41318;DHT22;27067;51.554;7.026;2023-02-15T15:14:43;16.80;76.20
41318;DHT22;27067;51.554;7.026;2023-02-15T15:20:13;16.80;76.60
41318;DHT22;27067;51.554;7.026;2023-02-15T15:22:41;16.80;77.20
41318;DHT22;27067;51.554;7.026;2023-02-15T15:27:59;16.90;78.00
41318;DHT22;27067;51.554;7.026;2023-02-15T15:32:57;16.80;78.00
41318;DHT22;27067;51.554;7.026;2023-02-15T15:48:47;16.80;78.10
41318;DHT22;27067;51.554;7.026;2023-02-15T15:51:22;16.80;78.10
41318;DHT22;27067;51.554;7.026;2023-02-15T15:53:51;16.80;78.10
41318;DHT22;27067;51.554;7.026;2023-02-15T15:56:21;16.80;78.10
41318;DHT22;27067;51.554;7.026;2023-02-15T15:58:56;16.80;78.30
41318;DHT22;27067;51.554;7.026;2023-02-15T16:01:31;16.80;78.40
41318;DHT22;27067;51.554;7.026;2023-02-15T16:04:00;16.80;78.50
41318;DHT22;27067;51.554;7.026;2023-02-15T16:09:13;16.80;78.60
41318;DHT22;27067;51.554;7.026;2023-02-15T16:11:40;16.80;78.80
41318;DHT22;27067;51.554;7.026;2023-02-15T16:14:15;16.80;79.00
41318;DHT22;27067;51.554;7.026;2023-02-15T16:16:48;16.80;79.20
41318;DHT22;27067;51.554;7.026;2023-02-15T16:19:22;16.80;79.80
41318;DHT22;27067;51.554;7.026;2023-02-15T16:21:49;16.80;79.30
41318;DHT22;27067;51.554;7.026;2023-02-15T16:32:53;17.00;78.90
41318;DHT22;27067;51.554;7.026;2023-02-15T16:35:20;17.00;78.80
41318;DHT22;27067;51.554;7.026;2023-02-15T16:37:46;17.00;78.60
41318;DHT22;27067;51.554;7.026;2023-02-15T16:40:40;17.00;78.50
41318;DHT22;27067;51.554;7.026;2023-02-15T16:43:18;17.00;78.40
41318;DHT22;27067;51.554;7.026;2023-02-15T16:45:46;17.00;78.40
41318;DHT22;27067;51.554;7.026;2023-02-15T16:48:20;17.00;78.30
41318;DHT22;27067;51.554;7.026;2023-02-15T16:50:50;17.00;78.30
41318;DHT22;27067;51.554;7.026;2023-02-15T16:53:22;16.90;78.30
41318;DHT22;27067;51.554;7.026;2023-02-15T16:56:00;16.90;78.30
41318;DHT22;27067;51.554;7.026;2023-02-15T16:58:45;16.90;78.40
41318;DHT22;27067;51.554;7.026;2023-02-15T17:01:15;16.90;78.50
41318;DHT22;27067;51.554;7.026;2023-02-15T17:03:42;16.90;78.50
41318;DHT22;27067;51.554;7.026;2023-02-15T17:06:24;16.90;78.60
41318;DHT22;27067;51.554;7.026;2023-02-15T17:08:51;16.90;78.60
41318;DHT22;27067;51.554;7.026;2023-02-15T17:11:19;16.90;78.60
41318;DHT22;27067;51.554;7.026;2023-02-15T17:16:53;16.80;78.70
41318;DHT22;27067;51.554;7.026;2023-02-15T17:19:32;16.80;78.60
41318;DHT22;27067;51.554;7.026;2023-02-15T17:21:59;16.90;78.60
41318;DHT22;27067;51.554;7.026;2023-02-15T17:24:42;16.80;79.20
41318;DHT22;27067;51.554;7.026;2023-02-15T17:27:23;16.80;78.60
41318;DHT22;27067;51.554;7.026;2023-02-15T17:30:05;16.80;78.50
41318;DHT22;27067;51.554;7.026;2023-02-15T17:32:38;16.80;78.50
41318;DHT22;27067;51.554;7.026;2023-02-15T17:35:20;16.80;78.40
41318;DHT22;27067;51.554;7.026;2023-02-15T17:37:54;16.80;78.50
41318;DHT22;27067;51.554;7.026;2023-02-15T17:40:27;16.80;78.70
41318;DHT22;27067;51.554;7.026;2023-02-15T17:42:54;16.80;78.70
41318;DHT22;27067;51.554;7.026;2023-02-15T17:45:24;16.80;78.70
41318;DHT22;27067;51.554;7.026;2023-02-15T17:47:50;16.80;78.70
41318;DHT22;27067;51.554;7.026;2023-02-15T17:50:24;16.80;78.70
41318;DHT22;27067;51.554;7.026;2023-02-15T17:52:55;16.80;78.70
41318;DHT22;27067;51.554;7.026;2023-02-15T17:55:32;16.80;79.20
41318;DHT22;27067;51.554;7.026;2023-02-15T17:58:09;16.70;78.80
41318;DHT22;27067;51.554;7.026;2023-02-15T18:00:41;16.70;78.80
41318;DHT22;27067;51.554;7.026;2023-02-15T18:03:39;16.70;78.80
41318;DHT22;27067;51.554;7.026;2023-02-15T18:06:24;16.70;78.80
41318;DHT22;27067;51.554;7.026;2023-02-15T18:09:16;16.70;78.80
41318;DHT22;27067;51.554;7.026;2023-02-15T18:12:02;16.70;78.80
41318;DHT22;27067;51.554;7.026;2023-02-15T18:14:27;16.70;78.80
41318;DHT22;27067;51.554;7.026;2023-02-15T18:16:54;16.70;78.80
41318;DHT22;27067;51.554;7.026;2023-02-15T18:19:22;16.70;78.80
41318;DHT22;27067;51.554;7.026;2023-02-15T18:21:48;16.70;78.80
41318;DHT22;27067;51.554;7.026;2023-02-15T18:24:23;16.70;78.80
41318;DHT22;27067;51.554;7.026;2023-02-15T18:26:49;16.70;78.80
41318;DHT22;27067;51.554;7.026;2023-02-15T18:29:15;16.70;78.80
41318;DHT22;27067;51.554;7.026;2023-02-15T18:31:43;16.70;78.80
41318;DHT22;27067;51.554;7.026;2023-02-15T18:34:29;16.70;78.90
41318;DHT22;27067;51.554;7.026;2023-02-15T18:36:56;16.70;78.90
41318;DHT22;27067;51.554;7.026;2023-02-15T18:39:32;16.70;78.90
41318;DHT22;27067;51.554;7.026;2023-02-15T18:41:58;16.70;78.90
41318;DHT22;27067;51.554;7.026;2023-02-15T18:44:24;16.70;78.80
41318;DHT22;27067;51.554;7.026;2023-02-15T18:46:50;16.70;78.80
41318;DHT22;27067;51.554;7.026;2023-02-15T18:49:16;16.70;78.80